Home > Products > Valid Products > TAF

000
FTUS43 KMQT 250520
TAFCMX
TAF
KCMX 250520Z 2506/2606 09005KT P6SM BKN090
     FM250700 08007KT P6SM -SHRA OVC050
     FM250900 08008KT 3SM -SHRA BR OVC012
     FM251100 08011KT 2SM -SHRA BR OVC002
     FM252200 28014KT 1 1/2SM -SHRA BR OVC002
     FM260000 27014KT 1/2SM -DZ FG OVC002=



000
FTUS43 KMQT 250520
TAFSAW
TAF
KSAW 250520Z 2506/2606 16007KT 6SM -SHRA BR OVC005
     FM250800 12006KT 2SM -SHRA BR OVC004
     FM252100 21012KT P6SM BKN008
     FM252300 21010KT P6SM BKN012
     FM260100 24008KT P6SM SCT020 BKN040=



000
FTUS43 KMQT 242333
TAFSAW
TAF
KSAW 242333Z 2500/2524 18010KT P6SM BKN070
     FM250400 18008KT P6SM -SHRA OVC030
     FM250600 16007KT 5SM -SHRA OVC010
     FM250800 12006KT 2SM -SHRA BR OVC004
     FM252200 21007KT P6SM BKN008=



000
FTUS43 KMQT 242333
TAFCMX
TAF
KCMX 242333Z 2500/2524 09005KT P6SM BKN080
     FM250700 09007KT P6SM -SHRA OVC050
     FM250900 10008KT 3SM -SHRA BR OVC012
     FM251100 09011KT 2SM -SHRA BR OVC002
     FM252200 25005KT 3SM -SHRA BR OVC002=



000
FTUS43 KMQT 242213 AAA
TAFSAW
TAF AMD
KSAW 242213Z 2422/2518 18010KT P6SM BKN070
     FM250300 18010KT P6SM -SHRA OVC030
     FM250600 18007KT 5SM -SHRA OVC012
     FM250900 16010KT 2SM -SHRA BR OVC004=



000
FTUS43 KMQT 242213 AAA
TAFSAW
TAF AMD
KSAW 242213Z 2422/2518 18010KT P6SM BKN070
     FM250300 18010KT P6SM -SHRA OVC030
     FM250600 18007KT 5SM -SHRA OVC012
     FM250900 16010KT 2SM -SHRA BR OVC004=



000
FTUS43 KMQT 241720
TAFCMX
TAF
KCMX 241720Z 2418/2518 28009KT P6SM BKN100
     FM242300 09006KT P6SM BKN100
     FM250700 09010KT P6SM -SHRA OVC050
     FM250900 10008KT 3SM -SHRA BR OVC012
     FM251100 09011KT 2SM -SHRA BR OVC003=



000
FTUS43 KMQT 241720
TAFSAW
TAF
KSAW 241720Z 2418/2518 23009KT P6SM BKN100
     FM250300 18010KT P6SM -SHRA OVC030
     FM250600 18007KT 5SM -SHRA OVC012
     FM250900 16010KT 2SM -SHRA BR OVC004=



000
FTUS43 KMQT 241120
TAFCMX
TAF
KCMX 241120Z 2412/2512 27009KT P6SM SCT100 BKN250
     FM242300 09006KT P6SM BKN100
     FM250700 09010KT P6SM -SHRA SCT010 OVC070
     FM250900 09010KT 2SM -SHRA BR OVC007=



000
FTUS43 KMQT 241120
TAFSAW
TAF
KSAW 241120Z 2412/2512 19005KT P6SM BKN100
     FM241900 16011KT P6SM BKN100
     FM250000 18010KT P6SM OVC010
     FM250400 16010KT 2SM -SHRA BR OVC005=



000
FTUS43 KMQT 240520
TAFCMX
TAF
KCMX 240520Z 2406/2506 27009KT P6SM SCT250
     FM242300 09006KT P6SM BKN100=



000
FTUS43 KMQT 240520
TAFSAW
TAF
KSAW 240520Z 2406/2506 00000KT P6SM SCT250
     FM241200 22005KT P6SM BKN100
     FM241900 18011KT P6SM BKN100=



000
FTUS43 KMQT 240520
TAFCMX
TAF
KCMX 240520Z 2406/2506 27009KT P6SM SCT250
     FM242300 09006KT P6SM BKN100=



000
FTUS43 KMQT 232332
TAFCMX
TAF
KCMX 232332Z 2400/2424 28015KT P6SM SCT250
     FM240200 27010KT P6SM SCT250=



000
FTUS43 KMQT 232332
TAFSAW
TAF
KSAW 232332Z 2400/2424 07006KT P6SM SCT100
     FM240130 19004KT P6SM SCT250
     FM241200 22005KT P6SM BKN100
     FM241900 18012KT P6SM BKN100=



000
FTUS43 KMQT 231732
TAFCMX
TAF
KCMX 231732Z 2318/2418 28015G25KT P6SM SCT150
     FM240000 26010KT P6SM SCT200=



000
FTUS43 KMQT 231732
TAFSAW
TAF
KSAW 231732Z 2318/2418 25012G18KT P6SM SCT200
     FM240100 23007KT P6SM SCT150=



000
FTUS43 KMQT 231732
TAFCMX
TAF
KCMX 231732Z 2318/2418 28015G25KT P6SM SCT150
     FM240000 26010KT P6SM SCT200=



000
FTUS43 KMQT 231732
TAFSAW
TAF
KSAW 231732Z 2318/2418 25012G18KT P6SM SCT200
     FM240100 23007KT P6SM SCT150=



000
FTUS43 KMQT 231359 AAA
TAFCMX
TAF AMD
KCMX 231359Z 2314/2412 28016G26KT P6SM SCT150
     FM240000 26012KT P6SM SKC=



000
FTUS43 KMQT 231124
TAFSAW
TAF
KSAW 231124Z 2312/2412 23006KT P6SM SKC
     FM231500 24011KT P6SM SKC
     FM232300 23007KT P6SM FEW120=



000
FTUS43 KMQT 231124
TAFCMX
TAF
KCMX 231124Z 2312/2412 28016KT P6SM SCT140 WS010/27035KT
     FM231300 26014KT P6SM FEW140
     FM240000 26009KT P6SM SKC=



000
FTUS43 KMQT 231015 AAA
TAFCMX
TAF AMD
KCMX 231015Z 2310/2406 27013KT P6SM BKN120 WS010/25035KT
     FM231300 27019G25KT P6SM SCT120
     FM240000 28010KT P6SM SCT250=



000
FTUS43 KMQT 231015 AAA
TAFCMX
TAF AMD
KCMX 231015Z 2310/2406 27013KT P6SM BKN120 WS010/25035KT
     FM231300 27019G25KT P6SM SCT120
     FM240000 28010KT P6SM SCT250=



000
FTUS43 KMQT 230536
TAFSAW
TAF
KSAW 230536Z 2306/2406 19005KT P6SM SKC WS005/21035KT
     FM231200 22012KT P6SM SCT120
     FM231500 23014G20KT P6SM SCT250
     FM232300 19008KT P6SM BKN250=



000
FTUS43 KMQT 230536
TAFCMX
TAF
KCMX 230536Z 2306/2406 24008KT P6SM BKN120 WS010/25035KT
     FM231300 27019G25KT P6SM SCT120
     FM240000 28010KT P6SM SCT250=



000
FTUS43 KMQT 230536
TAFSAW
TAF
KSAW 230536Z 2306/2406 19005KT P6SM SKC WS005/21035KT
     FM231200 22012KT P6SM SCT120
     FM231500 23014G20KT P6SM SCT250
     FM232300 19008KT P6SM BKN250=



000
FTUS43 KMQT 230536
TAFCMX
TAF
KCMX 230536Z 2306/2406 24008KT P6SM BKN120 WS010/25035KT
     FM231300 27019G25KT P6SM SCT120
     FM240000 28010KT P6SM SCT250=



000
FTUS43 KMQT 230347 AAA
TAFSAW
TAF AMD
KSAW 230347Z 2304/2324 19006KT P6SM SKC WS005/19030KT
     FM231200 22012KT P6SM FEW120
     FM231500 23014G20KT P6SM SCT250=



000
FTUS43 KMQT 230347 AAA
TAFSAW
TAF AMD
KSAW 230347Z 2304/2324 19006KT P6SM SKC WS005/19030KT
     FM231200 22012KT P6SM FEW120
     FM231500 23014G20KT P6SM SCT250=



000
FTUS43 KMQT 222334
TAFCMX
TAF
KCMX 222334Z 2300/2324 09006KT P6SM SKC
     FM230500 24007KT P6SM SKC
     FM230700 24010KT P6SM SCT120 WS010/25035KT
     FM231300 27019G25KT P6SM SCT120=



000
FTUS43 KMQT 222334
TAFSAW
TAF
KSAW 222334Z 2300/2324 07005KT P6SM SKC
     FM230200 18005KT P6SM SKC
     FM231200 22012KT P6SM FEW120
     FM231500 23014G20KT P6SM SCT250=



000
FTUS43 KMQT 222334
TAFCMX
TAF
KCMX 222334Z 2300/2324 09006KT P6SM SKC
     FM230500 24007KT P6SM SKC
     FM230700 24010KT P6SM SCT120 WS010/25035KT
     FM231300 27019G25KT P6SM SCT120=



000
FTUS43 KMQT 222334
TAFSAW
TAF
KSAW 222334Z 2300/2324 07005KT P6SM SKC
     FM230200 18005KT P6SM SKC
     FM231200 22012KT P6SM FEW120
     FM231500 23014G20KT P6SM SCT250=



000
FTUS43 KMQT 221731
TAFSAW
TAF
KSAW 221731Z 2218/2318 05011KT P6SM SKC
     FM222300 10005KT P6SM SKC
     FM230200 18005KT P6SM SKC
     FM231200 23012KT P6SM FEW150
     FM231500 24014G20KT P6SM SCT200=



000
FTUS43 KMQT 221731
TAFSAW
TAF
KSAW 221731Z 2218/2318 05011KT P6SM SKC
     FM222300 10005KT P6SM SKC
     FM230200 18005KT P6SM SKC
     FM231200 23012KT P6SM FEW150
     FM231500 24014G20KT P6SM SCT200=



000
FTUS43 KMQT 221731
TAFCMX
TAF
KCMX 221731Z 2218/2318 VRB05KT P6SM SKC
     FM222200 10005KT P6SM SKC
     FM230500 20007KT P6SM SKC
     FM230900 23011KT P6SM SCT120
     FM231300 27019G25KT P6SM SCT200=



000
FTUS43 KMQT 221731
TAFCMX
TAF
KCMX 221731Z 2218/2318 VRB05KT P6SM SKC
     FM222200 10005KT P6SM SKC
     FM230500 20007KT P6SM SKC
     FM230900 23011KT P6SM SCT120
     FM231300 27019G25KT P6SM SCT200=



000
FTUS43 KMQT 221120
TAFCMX
TAF
KCMX 221120Z 2212/2312 VRB03KT P6SM SKC
     FM221500 30006KT P6SM SKC
     FM222100 09005KT P6SM SKC
     FM230600 22006KT P6SM SKC
     FM231100 25010KT P6SM SKC=



000
FTUS43 KMQT 221120
TAFSAW
TAF
KSAW 221120Z 2212/2312 01004KT P6SM SKC
     FM221500 03009KT P6SM SKC
     FM230100 16005KT P6SM SKC
     FM230800 22006KT P6SM SKC=



000
FTUS43 KMQT 221120
TAFSAW
TAF
KSAW 221120Z 2212/2312 01004KT P6SM SKC
     FM221500 03009KT P6SM SKC
     FM230100 16005KT P6SM SKC
     FM230800 22006KT P6SM SKC=



000
FTUS43 KMQT 221120
TAFCMX
TAF
KCMX 221120Z 2212/2312 VRB03KT P6SM SKC
     FM221500 30006KT P6SM SKC
     FM222100 09005KT P6SM SKC
     FM230600 22006KT P6SM SKC
     FM231100 25010KT P6SM SKC=



    US Dept of Commerce
    National Oceanic and Atmospheric Administration
    National Weather Service
    1325 East West Highway
    Silver Spring, MD 20910
    Page Author: NWS Internet Services Team
Disclaimer
Information Quality
Credits
Glossary
Privacy Policy
Freedom of Information Act (FOIA)
About Us
Career Opportunities